createdAt,value
2018-12-20T00:02:25.984Z,1.97
2018-12-20T00:04:57.780Z,2.67
2018-12-20T00:07:26.388Z,1.57
2018-12-20T00:09:55.019Z,1.70
2018-12-20T00:12:24.746Z,1.77
2018-12-20T00:14:53.363Z,1.30
2018-12-20T00:17:27.460Z,1.73
2018-12-20T00:19:56.214Z,1.60
2018-12-20T00:22:24.640Z,1.43
2018-12-20T00:24:53.835Z,1.13
2018-12-20T00:27:22.354Z,1.30
2018-12-20T00:29:51.039Z,1.23
2018-12-20T00:32:20.034Z,1.10
2018-12-20T00:34:48.518Z,1.60
2018-12-20T00:37:18.840Z,1.20
2018-12-20T00:39:47.463Z,1.53
2018-12-20T00:42:16.189Z,1.33
2018-12-20T00:44:44.846Z,1.53
2018-12-20T00:47:13.497Z,1.30
2018-12-20T00:49:42.211Z,0.90
2018-12-20T00:52:10.901Z,1.00
2018-12-20T00:54:39.475Z,0.97
2018-12-20T00:57:07.896Z,0.90
2018-12-20T00:59:36.472Z,0.73
2018-12-20T01:02:05.661Z,0.87
2018-12-20T01:04:34.138Z,1.20
2018-12-20T01:07:02.643Z,0.80
2018-12-20T01:09:32.508Z,0.80
2018-12-20T01:12:00.926Z,1.00
2018-12-20T01:14:29.290Z,0.83
2018-12-20T01:16:57.882Z,1.20
2018-12-20T01:19:26.498Z,1.00
2018-12-20T01:21:55.074Z,0.70
2018-12-20T01:24:23.586Z,0.93
2018-12-20T01:26:52.041Z,0.80
2018-12-20T01:29:20.614Z,0.93
2018-12-20T01:31:49.218Z,0.67
2018-12-20T01:34:17.743Z,0.67
2018-12-20T01:36:46.493Z,1.07
2018-12-20T01:39:15.191Z,0.80
2018-12-20T01:41:45.487Z,1.10
2018-12-20T01:44:13.940Z,0.90
2018-12-20T01:46:43.365Z,1.00
2018-12-20T01:49:12.207Z,0.73
2018-12-20T01:51:40.875Z,0.93
2018-12-20T01:54:09.388Z,0.80
2018-12-20T01:56:38.071Z,0.90
2018-12-20T01:59:07.455Z,1.17
2018-12-20T02:01:36.155Z,0.70
2018-12-20T02:04:04.556Z,0.87
2018-12-20T02:06:32.946Z,0.77
2018-12-20T02:09:01.857Z,0.77
2018-12-20T02:11:31.541Z,0.80
2018-12-20T02:14:00.614Z,0.90
2018-12-20T02:16:29.009Z,0.70
2018-12-20T02:18:57.703Z,0.77
2018-12-20T02:21:26.428Z,0.50
2018-12-20T02:23:55.973Z,0.77
2018-12-20T02:26:24.422Z,1.00
2018-12-20T02:28:53.053Z,0.80
2018-12-20T02:31:21.478Z,1.10
2018-12-20T02:33:50.099Z,0.80
2018-12-20T02:36:18.701Z,0.73
2018-12-20T02:38:48.276Z,0.77
2018-12-20T02:41:17.025Z,0.70
2018-12-20T02:43:45.807Z,0.80
2018-12-20T02:46:14.430Z,1.10
2018-12-20T02:48:43.147Z,1.23
2018-12-20T02:51:11.915Z,0.90
2018-12-20T02:53:40.578Z,1.20
2018-12-20T02:56:09.073Z,1.10
2018-12-20T02:58:37.753Z,0.80
2018-12-20T03:01:06.532Z,0.80
2018-12-20T03:03:35.069Z,0.90
2018-12-20T03:06:03.735Z,0.90
2018-12-20T03:08:32.436Z,0.97
2018-12-20T03:11:01.243Z,0.60
2018-12-20T03:13:30.178Z,0.73
2018-12-20T03:15:59.337Z,0.70
2018-12-20T03:18:28.070Z,0.80
2018-12-20T03:20:56.726Z,1.10
2018-12-20T03:23:25.411Z,0.70
2018-12-20T03:25:53.953Z,0.70
2018-12-20T03:28:22.560Z,0.97
2018-12-20T03:30:51.574Z,0.50
2018-12-20T03:33:20.128Z,0.60
2018-12-20T03:35:48.967Z,0.70
2018-12-20T03:38:17.608Z,0.70
2018-12-20T03:40:46.265Z,1.07
2018-12-20T03:43:15.093Z,0.80
2018-12-20T03:45:44.058Z,1.10
2018-12-20T03:48:12.754Z,0.50
2018-12-20T03:50:41.279Z,0.70
2018-12-20T03:53:09.996Z,0.43
2018-12-20T03:55:38.500Z,0.67
2018-12-20T03:58:07.035Z,0.57
2018-12-20T04:00:35.804Z,0.93
2018-12-20T04:03:04.376Z,0.80
2018-12-20T04:05:33.001Z,0.63
2018-12-20T04:08:01.656Z,0.60
2018-12-20T04:10:30.281Z,1.63
2018-12-20T04:12:58.555Z,0.80
2018-12-20T04:15:27.232Z,0.50
2018-12-20T04:17:55.868Z,0.80
2018-12-20T04:20:24.361Z,0.63
2018-12-20T04:22:53.934Z,0.73
2018-12-20T04:25:22.396Z,0.70
2018-12-20T04:27:52.229Z,0.90
2018-12-20T04:30:21.306Z,0.97
2018-12-20T04:32:49.902Z,0.77
2018-12-20T04:35:18.490Z,0.90
2018-12-20T04:37:47.221Z,0.80
2018-12-20T04:40:16.432Z,1.00
2018-12-20T04:42:45.296Z,0.80
2018-12-20T04:45:14.679Z,0.93
2018-12-20T04:47:43.435Z,1.27
2018-12-20T04:50:12.194Z,1.93
2018-12-20T04:52:40.945Z,1.13
2018-12-20T04:55:09.437Z,1.10
2018-12-20T04:57:38.097Z,1.10
2018-12-20T05:00:07.149Z,0.70
2018-12-20T05:02:35.672Z,0.87
2018-12-20T05:05:04.722Z,0.70
2018-12-20T05:07:33.528Z,0.80
2018-12-20T05:10:02.507Z,0.77
2018-12-20T05:12:31.145Z,0.90
2018-12-20T05:15:00.808Z,0.70
2018-12-20T05:17:29.426Z,0.80
2018-12-20T05:19:57.921Z,0.70
2018-12-20T05:22:26.843Z,1.10
2018-12-20T05:24:55.709Z,0.67
2018-12-20T05:27:24.444Z,1.00
2018-12-20T05:29:53.298Z,0.90
2018-12-20T05:32:22.318Z,0.70
2018-12-20T05:34:50.944Z,0.70
2018-12-20T05:37:19.828Z,1.00
2018-12-20T05:39:48.606Z,0.97
2018-12-20T05:42:17.329Z,1.00
2018-12-20T05:44:47.722Z,0.83
2018-12-20T05:47:16.990Z,0.70
2018-12-20T05:49:45.836Z,0.90
2018-12-20T05:52:14.589Z,0.90
2018-12-20T05:54:43.098Z,1.00
2018-12-20T05:57:12.080Z,1.07
2018-12-20T05:59:40.933Z,0.80
2018-12-20T06:02:09.382Z,0.83
2018-12-20T06:04:38.128Z,0.80
2018-12-20T06:07:07.051Z,0.73
2018-12-20T06:09:35.636Z,0.80
2018-12-20T06:12:04.313Z,1.20
2018-12-20T06:14:33.102Z,1.17
2018-12-20T06:17:01.898Z,1.43
2018-12-20T06:19:30.736Z,1.23
2018-12-20T06:21:59.332Z,1.20
2018-12-20T06:24:27.838Z,1.13
2018-12-20T06:26:56.398Z,2.13
2018-12-20T06:29:24.492Z,1.37
2018-12-20T06:31:53.076Z,1.50
2018-12-20T06:34:21.556Z,1.13
2018-12-20T06:36:50.184Z,1.40
2018-12-20T06:39:18.724Z,0.87
2018-12-20T06:41:47.196Z,0.97
2018-12-20T06:44:15.728Z,1.13
2018-12-20T06:46:49.684Z,1.00
2018-12-20T06:49:18.488Z,1.37
2018-12-20T06:51:47.275Z,1.13
2018-12-20T06:54:15.641Z,0.93
2018-12-20T06:56:44.174Z,0.70
2018-12-20T06:59:12.504Z,0.70
2018-12-20T07:01:40.886Z,1.40
2018-12-20T07:04:09.731Z,1.00
2018-12-20T07:06:38.833Z,1.17
2018-12-20T07:09:08.995Z,1.27
2018-12-20T07:11:37.400Z,1.30
2018-12-20T07:14:06.873Z,1.10
2018-12-20T07:16:35.295Z,1.43
2018-12-20T07:19:03.887Z,1.30
2018-12-20T07:21:32.425Z,0.70
2018-12-20T07:24:01.250Z,0.80
2018-12-20T07:26:29.795Z,1.10
2018-12-20T07:28:58.825Z,0.80
2018-12-20T07:31:27.668Z,0.70
2018-12-20T07:33:56.118Z,1.03
2018-12-20T07:36:25.520Z,0.83
2018-12-20T07:38:54.097Z,0.70
2018-12-20T07:41:22.625Z,1.37
2018-12-20T07:43:51.109Z,1.30
2018-12-20T07:46:19.835Z,1.07
2018-12-20T07:48:48.494Z,1.10
2018-12-20T07:51:17.249Z,0.80
2018-12-20T07:53:45.998Z,0.90
2018-12-20T07:56:14.542Z,1.03
2018-12-20T07:58:43.023Z,0.93
2018-12-20T08:01:11.702Z,1.20
2018-12-20T08:03:41.103Z,1.37
2018-12-20T08:06:09.797Z,1.13
2018-12-20T08:08:38.620Z,1.10
2018-12-20T08:11:07.676Z,1.10
2018-12-20T08:13:36.140Z,1.20
2018-12-20T08:16:04.702Z,1.10
2018-12-20T08:18:33.117Z,1.10
2018-12-20T08:21:01.613Z,0.90
2018-12-20T08:23:30.384Z,0.83
2018-12-20T08:25:58.844Z,0.80
2018-12-20T08:28:27.485Z,1.17
2018-12-20T08:30:55.977Z,0.80
2018-12-20T08:33:24.416Z,1.10
2018-12-20T08:35:53.014Z,1.27
2018-12-20T08:38:22.100Z,1.00
2018-12-20T08:40:50.576Z,0.93
2018-12-20T08:43:19.048Z,1.70
2018-12-20T08:45:47.885Z,1.23
2018-12-20T08:48:16.428Z,0.97
2018-12-20T08:50:44.913Z,1.00
2018-12-20T08:53:13.520Z,1.03
2018-12-20T08:55:42.157Z,1.30
2018-12-20T08:58:11.354Z,0.90
2018-12-20T09:00:39.914Z,1.00
2018-12-20T09:03:08.447Z,1.10
2018-12-20T09:05:36.921Z,1.50
2018-12-20T09:08:05.854Z,1.40
2018-12-20T09:10:34.281Z,1.20
2018-12-20T09:13:09.526Z,0.80
2018-12-20T09:15:33.860Z,1.70
2018-12-20T09:18:02.401Z,0.70
2018-12-20T09:20:32.825Z,1.10
2018-12-20T09:23:01.454Z,1.00
2018-12-20T09:25:29.881Z,0.80
2018-12-20T09:27:59.144Z,0.90
2018-12-20T09:30:30.553Z,1.30
2018-12-20T09:32:58.518Z,1.30
2018-12-20T09:35:27.025Z,1.00
2018-12-20T09:37:55.627Z,0.80
2018-12-20T09:40:24.057Z,0.70
2018-12-20T09:42:52.612Z,1.20
2018-12-20T09:45:21.649Z,0.80
2018-12-20T09:47:58.422Z,0.87
2018-12-20T09:50:27.077Z,0.90
2018-12-20T09:52:55.481Z,0.83
2018-12-20T09:55:23.948Z,0.60
2018-12-20T09:57:52.574Z,1.50
2018-12-20T10:00:21.017Z,0.87
2018-12-20T10:02:49.605Z,1.00
2018-12-20T10:05:18.230Z,0.90
2018-12-20T10:07:46.660Z,1.00
2018-12-20T10:10:15.028Z,0.87
2018-12-20T10:12:43.770Z,1.10
2018-12-20T10:15:12.327Z,1.20
2018-12-20T10:17:40.885Z,1.23
2018-12-20T10:20:11.714Z,1.07
2018-12-20T10:22:40.208Z,1.20
2018-12-20T10:25:09.299Z,0.93
2018-12-20T10:27:37.929Z,1.40
2018-12-20T10:30:07.904Z,1.67
2018-12-20T10:32:36.389Z,1.13
2018-12-20T10:35:04.974Z,1.37
2018-12-20T10:37:33.556Z,1.10
2018-12-20T10:40:02.231Z,1.00
2018-12-20T10:42:30.864Z,1.17
2018-12-20T10:44:59.200Z,1.10
2018-12-20T10:47:29.395Z,1.00
2018-12-20T10:49:58.045Z,0.83
2018-12-20T10:52:26.477Z,1.10
2018-12-20T10:54:54.864Z,1.10
2018-12-20T10:57:23.837Z,1.60
2018-12-20T10:59:52.665Z,1.20
2018-12-20T11:02:26.745Z,0.90
2018-12-20T11:05:01.861Z,1.10
2018-12-20T11:07:35.738Z,0.97
2018-12-20T11:10:10.500Z,1.43
2018-12-20T11:12:44.276Z,0.63
2018-12-20T11:15:12.904Z,1.27
2018-12-20T11:17:41.196Z,1.10
2018-12-20T11:20:10.028Z,0.83
2018-12-20T11:22:38.360Z,1.00
2018-12-20T11:25:07.256Z,1.10
2018-12-20T11:27:35.820Z,1.40
2018-12-20T11:30:05.184Z,0.90
2018-12-20T11:32:33.723Z,0.90
2018-12-20T11:35:02.248Z,0.80
2018-12-20T11:37:30.746Z,1.43
2018-12-20T11:39:59.935Z,1.70
2018-12-20T11:42:28.680Z,1.90
2018-12-20T11:44:57.037Z,1.30
2018-12-20T11:47:28.907Z,1.37
2018-12-20T11:49:57.340Z,1.30
2018-12-20T11:52:25.756Z,1.00
2018-12-20T11:54:54.368Z,1.10
2018-12-20T11:57:23.290Z,1.20
2018-12-20T11:59:51.950Z,1.23
2018-12-20T12:02:24.463Z,0.70
2018-12-20T12:04:50.972Z,0.80
2018-12-20T12:07:19.424Z,1.03
2018-12-20T12:09:47.476Z,0.70
2018-12-20T12:12:16.712Z,1.17
2018-12-20T12:14:44.765Z,0.80
2018-12-20T12:17:13.140Z,0.90
2018-12-20T12:19:42.261Z,0.90
2018-12-20T12:22:10.716Z,0.90
2018-12-20T12:24:39.522Z,1.30
2018-12-20T12:27:08.033Z,1.13
2018-12-20T12:29:36.573Z,0.90
2018-12-20T12:32:05.907Z,0.70
2018-12-20T12:34:34.600Z,0.80
2018-12-20T12:37:03.029Z,1.13
2018-12-20T12:39:31.626Z,0.73
2018-12-20T12:42:00.288Z,0.90
2018-12-20T12:44:28.685Z,0.70
2018-12-20T12:46:58.111Z,0.70
2018-12-20T12:49:26.613Z,1.50
2018-12-20T12:51:55.048Z,3.90
2018-12-20T12:54:23.515Z,6.67
2018-12-20T12:56:52.116Z,6.13
2018-12-20T12:59:20.496Z,1.40
2018-12-20T13:01:48.965Z,3.30
2018-12-20T13:04:18.295Z,2.10
2018-12-20T13:06:46.977Z,2.10
2018-12-20T13:09:15.549Z,1.57
2018-12-20T13:11:45.031Z,2.13
2018-12-20T13:14:13.533Z,2.80
2018-12-20T13:16:41.908Z,1.23
2018-12-20T13:19:10.697Z,1.63
2018-12-20T13:21:39.388Z,2.00
2018-12-20T13:24:08.073Z,2.90
2018-12-20T13:26:36.696Z,7.00
2018-12-20T13:29:05.250Z,5.30
2018-12-20T13:31:33.702Z,4.13
2018-12-20T13:34:02.181Z,1.87
2018-12-20T13:36:30.862Z,7.00
2018-12-20T13:38:59.413Z,3.63
2018-12-20T13:41:27.989Z,11.40
2018-12-20T13:43:56.433Z,6.00
2018-12-20T13:46:24.918Z,5.23
2018-12-20T13:48:54.172Z,10.30
2018-12-20T13:51:22.692Z,5.10
2018-12-20T13:53:51.071Z,2.17
2018-12-20T13:56:19.692Z,2.60
2018-12-20T13:58:48.317Z,1.37
2018-12-20T14:01:16.814Z,1.10
2018-12-20T14:03:45.344Z,0.90
2018-12-20T14:06:14.092Z,1.20
2018-12-20T14:08:42.577Z,1.83
2018-12-20T14:11:11.296Z,1.80
2018-12-20T14:13:39.637Z,1.00
2018-12-20T14:16:08.217Z,0.80
2018-12-20T14:18:36.696Z,0.80
2018-12-20T14:21:05.096Z,0.60
2018-12-20T14:23:33.576Z,0.97
2018-12-20T14:26:02.292Z,1.20
2018-12-20T14:28:30.829Z,1.10
2018-12-20T14:30:59.312Z,0.90
2018-12-20T14:33:28.856Z,0.90
2018-12-20T14:35:57.401Z,0.97
2018-12-20T14:38:25.876Z,0.90
2018-12-20T14:40:54.490Z,1.30
2018-12-20T14:43:22.959Z,1.23
2018-12-20T14:45:51.533Z,1.10
2018-12-20T14:48:25.516Z,0.97
2018-12-20T14:50:53.808Z,1.67
2018-12-20T14:53:22.196Z,2.77
2018-12-20T14:55:50.513Z,1.40
2018-12-20T14:58:19.052Z,2.03
2018-12-20T15:00:48.457Z,1.60
2018-12-20T15:03:16.988Z,2.77
2018-12-20T15:05:45.804Z,3.40
2018-12-20T15:08:14.192Z,1.97
2018-12-20T15:10:42.770Z,1.27
2018-12-20T15:13:11.272Z,2.60
2018-12-20T15:15:39.858Z,2.97
2018-12-20T15:18:08.580Z,2.67
2018-12-20T15:20:40.642Z,2.00
2018-12-20T15:23:07.537Z,2.60
2018-12-20T15:25:36.479Z,1.97
2018-12-20T15:28:05.125Z,2.63
2018-12-20T15:30:33.688Z,1.87
2018-12-20T15:33:02.334Z,2.40
2018-12-20T15:35:30.778Z,2.10
2018-12-20T15:38:00.788Z,1.90
2018-12-20T15:40:29.318Z,1.50
2018-12-20T15:42:57.937Z,2.77
2018-12-20T15:45:26.336Z,2.47
2018-12-20T15:47:55.181Z,3.67
2018-12-20T15:50:23.604Z,2.60
2018-12-20T15:52:52.028Z,3.87
2018-12-20T15:55:20.631Z,3.40
2018-12-20T15:57:49.052Z,3.27
2018-12-20T16:00:17.529Z,2.83
2018-12-20T16:02:46.096Z,1.97
2018-12-20T16:05:15.161Z,2.00
2018-12-20T16:07:44.337Z,2.33
2018-12-20T16:10:16.553Z,2.20
2018-12-20T16:12:45.260Z,1.80
2018-12-20T16:15:13.844Z,2.90
2018-12-20T16:17:42.568Z,4.27
2018-12-20T16:20:11.013Z,4.60
2018-12-20T16:22:39.488Z,5.17
2018-12-20T16:25:08.536Z,2.90
2018-12-20T16:27:36.976Z,2.30
2018-12-20T16:30:07.136Z,2.90
2018-12-20T16:32:35.627Z,3.17
2018-12-20T16:35:04.877Z,2.50
2018-12-20T16:37:33.453Z,2.57
2018-12-20T16:40:02.177Z,2.17
2018-12-20T16:42:31.840Z,2.57
2018-12-20T16:45:00.425Z,2.20
2018-12-20T16:47:28.924Z,1.93
2018-12-20T16:49:57.498Z,2.10
2018-12-20T16:52:26.080Z,1.70
2018-12-20T16:54:54.614Z,1.73
2018-12-20T16:57:23.140Z,2.17
2018-12-20T16:59:52.644Z,1.97
2018-12-20T17:02:21.244Z,2.90
2018-12-20T17:04:49.917Z,2.17
2018-12-20T17:07:18.398Z,2.07
2018-12-20T17:09:46.925Z,1.60
2018-12-20T17:12:16.233Z,1.87
2018-12-20T17:14:44.861Z,1.83
2018-12-20T17:17:13.352Z,2.03
2018-12-20T17:19:41.809Z,1.73
2018-12-20T17:22:11.329Z,1.50
2018-12-20T17:24:39.952Z,2.03
2018-12-20T17:27:08.409Z,1.40
2018-12-20T17:29:36.982Z,1.30
2018-12-20T17:32:05.768Z,1.77
2018-12-20T17:34:34.254Z,3.70
2018-12-20T17:37:02.533Z,1.80
2018-12-20T17:39:31.204Z,1.37
2018-12-20T17:41:59.823Z,1.57
2018-12-20T17:44:28.360Z,1.27
2018-12-20T17:46:56.916Z,1.57
2018-12-20T17:49:30.547Z,1.87
2018-12-20T17:51:56.114Z,1.50
2018-12-20T17:54:24.982Z,1.30
2018-12-20T17:56:53.344Z,1.67
2018-12-20T17:59:22.833Z,1.37
2018-12-20T18:01:51.410Z,2.13
2018-12-20T18:04:20.010Z,1.70
2018-12-20T18:06:48.493Z,1.60
2018-12-20T18:09:17.633Z,1.07
2018-12-20T18:11:46.177Z,1.30
2018-12-20T18:14:14.761Z,1.30
2018-12-20T18:16:43.289Z,2.40
2018-12-20T18:19:12.435Z,2.63
2018-12-20T18:21:41.225Z,2.53
2018-12-20T18:24:10.148Z,2.23
2018-12-20T18:26:38.800Z,1.20
2018-12-20T18:29:07.273Z,2.00
2018-12-20T18:31:36.733Z,1.80
2018-12-20T18:34:05.170Z,1.47
2018-12-20T18:36:33.727Z,2.20
2018-12-20T18:39:02.201Z,3.43
2018-12-20T18:41:32.349Z,3.47
2018-12-20T18:44:00.941Z,9.50
2018-12-20T18:46:29.456Z,6.47
2018-12-20T18:48:58.055Z,10.87
2018-12-20T18:51:26.700Z,5.27
2018-12-20T18:53:55.243Z,3.60
2018-12-20T18:56:24.325Z,3.00
2018-12-20T18:58:52.841Z,2.00
2018-12-20T19:01:21.568Z,1.53
2018-12-20T19:03:49.999Z,2.00
2018-12-20T19:06:18.589Z,2.90
2018-12-20T19:08:47.362Z,4.97
2018-12-20T19:11:15.745Z,1.97
2018-12-20T19:13:44.344Z,2.33
2018-12-20T19:16:12.873Z,2.00
2018-12-20T19:18:41.200Z,1.93
2018-12-20T19:21:09.787Z,2.13
2018-12-20T19:23:38.647Z,1.77
2018-12-20T19:26:07.144Z,2.20
2018-12-20T19:28:35.641Z,2.70
2018-12-20T19:31:04.170Z,2.13
2018-12-20T19:33:32.701Z,1.90
2018-12-20T19:36:02.115Z,2.00
2018-12-20T19:38:30.832Z,8.20
2018-12-20T19:40:59.488Z,3.87
2018-12-20T19:43:27.845Z,2.37
2018-12-20T19:45:56.353Z,3.23
2018-12-20T19:48:25.021Z,2.77
2018-12-20T19:50:53.719Z,3.97
2018-12-20T19:53:22.334Z,4.00
2018-12-20T19:55:50.958Z,5.10
2018-12-20T19:58:19.247Z,5.73
2018-12-20T20:00:48.277Z,6.93
2018-12-20T20:03:16.946Z,2.50
2018-12-20T20:05:45.005Z,2.40
2018-12-20T20:08:13.129Z,5.03
2018-12-20T20:10:41.196Z,3.63
2018-12-20T20:13:09.377Z,2.77
2018-12-20T20:15:37.513Z,1.63
2018-12-20T20:18:05.596Z,1.67
2018-12-20T20:20:33.681Z,1.30
2018-12-20T20:23:01.937Z,1.37
2018-12-20T20:25:30.009Z,2.80
2018-12-20T20:27:58.552Z,3.70
2018-12-20T20:30:27.445Z,3.07
2018-12-20T20:32:56.041Z,2.03
2018-12-20T20:35:24.606Z,1.60
2018-12-20T20:37:53.561Z,1.80
2018-12-20T20:40:22.285Z,1.40
2018-12-20T20:42:50.838Z,1.33
2018-12-20T20:45:19.541Z,1.60
2018-12-20T20:47:48.158Z,1.60
2018-12-20T20:50:22.322Z,1.53
2018-12-20T20:52:47.317Z,1.13
2018-12-20T20:55:15.760Z,1.30
2018-12-20T20:57:44.440Z,1.70
2018-12-20T21:00:14.280Z,1.60
2018-12-20T21:02:43.049Z,1.50
2018-12-20T21:05:12.146Z,1.23
2018-12-20T21:07:41.898Z,1.73
2018-12-20T21:10:11.393Z,2.00
2018-12-20T21:12:39.938Z,1.60
2018-12-20T21:15:10.558Z,1.70
2018-12-20T21:17:38.865Z,1.80
2018-12-20T21:20:09.919Z,1.60
2018-12-20T21:22:38.152Z,1.97
2018-12-20T21:25:06.744Z,1.40
2018-12-20T21:27:35.455Z,1.80
2018-12-20T21:30:06.066Z,1.53
2018-12-20T21:32:35.320Z,1.30
2018-12-20T21:35:04.011Z,1.77
2018-12-20T21:37:33.673Z,1.37
2018-12-20T21:40:02.572Z,1.60
2018-12-20T21:42:31.641Z,1.20
2018-12-20T21:45:00.266Z,2.30
2018-12-20T21:47:29.158Z,3.10
2018-12-20T21:49:57.796Z,4.53
2018-12-20T21:52:26.297Z,4.63
2018-12-20T21:54:54.909Z,2.90
2018-12-20T21:57:23.449Z,2.53
2018-12-20T21:59:51.916Z,2.57
2018-12-20T22:02:20.448Z,2.83
2018-12-20T22:04:49.916Z,1.80
2018-12-20T22:07:18.397Z,2.67
2018-12-20T22:09:46.917Z,2.10
2018-12-20T22:12:16.526Z,2.27
2018-12-20T22:14:45.069Z,2.10
2018-12-20T22:17:13.180Z,2.00
2018-12-20T22:19:41.225Z,1.73
2018-12-20T22:22:09.281Z,2.23
2018-12-20T22:24:37.388Z,2.17
2018-12-20T22:27:05.591Z,1.83
2018-12-20T22:29:33.645Z,2.27
2018-12-20T22:32:01.934Z,1.60
2018-12-20T22:34:30.005Z,1.53
2018-12-20T22:36:58.112Z,1.97
2018-12-20T22:39:27.252Z,1.73
2018-12-20T22:41:55.697Z,1.83
2018-12-20T22:44:24.172Z,1.40
2018-12-20T22:46:52.602Z,1.57
2018-12-20T22:49:21.025Z,1.30
2018-12-20T22:51:49.630Z,1.63
2018-12-20T22:54:19.129Z,1.43
2018-12-20T22:56:47.708Z,1.20
2018-12-20T22:59:16.276Z,1.53
2018-12-20T23:01:44.929Z,1.00
2018-12-20T23:04:13.332Z,1.23
2018-12-20T23:06:41.946Z,1.20
2018-12-20T23:09:10.668Z,1.00
2018-12-20T23:11:39.218Z,1.10
2018-12-20T23:14:07.689Z,1.10
2018-12-20T23:16:36.491Z,0.97
2018-12-20T23:19:05.167Z,1.20
2018-12-20T23:21:33.217Z,1.43
2018-12-20T23:24:01.760Z,1.50
2018-12-20T23:26:30.945Z,1.17
2018-12-20T23:28:59.025Z,1.10
2018-12-20T23:31:27.449Z,1.03
2018-12-20T23:33:55.541Z,0.90
2018-12-20T23:36:23.598Z,1.27
2018-12-20T23:38:51.713Z,1.20
2018-12-20T23:41:19.832Z,1.00
2018-12-20T23:43:47.872Z,1.27
2018-12-20T23:46:16.040Z,1.60
2018-12-20T23:48:44.079Z,1.43
2018-12-20T23:51:13.769Z,1.00
2018-12-20T23:53:42.240Z,1.70
2018-12-20T23:56:10.288Z,1.47
2018-12-20T23:58:38.349Z,1.10
